createdAt,value
2023-05-19T00:00:39.642Z,9.719291
2023-05-19T00:01:39.638Z,9.719268
2023-05-19T00:02:39.776Z,9.719217
2023-05-19T00:03:39.740Z,9.719289
2023-05-19T00:04:39.625Z,9.719306
2023-05-19T00:05:39.645Z,9.719294
2023-05-19T00:06:39.576Z,9.719169
2023-05-19T00:07:39.575Z,9.719189
2023-05-19T00:08:39.557Z,9.719404
2023-05-19T00:09:39.642Z,9.719460
2023-05-19T00:10:39.533Z,9.719358
2023-05-19T00:11:39.549Z,9.719402
2023-05-19T00:12:39.510Z,9.719569
2023-05-19T00:13:39.518Z,9.719543
2023-05-19T00:14:39.528Z,9.719562
2023-05-19T00:15:39.586Z,9.719465
2023-05-19T00:16:39.500Z,9.719523
2023-05-19T00:17:39.497Z,9.719513
2023-05-19T00:18:39.468Z,9.719442
2023-05-19T00:19:39.439Z,9.719483
2023-05-19T00:20:39.436Z,9.719458
2023-05-19T00:21:39.411Z,9.719548
2023-05-19T00:22:39.394Z,9.719357
2023-05-19T00:23:39.388Z,9.719381
2023-05-19T00:24:39.403Z,9.719364
2023-05-19T00:25:39.370Z,9.719331
2023-05-19T00:26:39.384Z,9.719133
2023-05-19T00:27:39.394Z,9.719162
2023-05-19T00:28:39.333Z,9.719170
2023-05-19T00:29:39.352Z,9.719179
2023-05-19T00:30:39.320Z,9.719170
2023-05-19T00:31:39.369Z,9.719179
2023-05-19T00:32:39.322Z,9.719193
2023-05-19T00:33:39.299Z,9.719195
2023-05-19T00:34:39.310Z,9.719157
2023-05-19T00:35:39.254Z,9.719119
2023-05-19T00:36:39.253Z,9.719119
2023-05-19T00:37:39.293Z,9.719036
2023-05-19T00:38:39.259Z,9.719148
2023-05-19T00:39:39.228Z,9.719141
2023-05-19T00:40:39.253Z,9.719111
2023-05-19T00:41:39.209Z,9.719014
2023-05-19T00:42:39.208Z,9.719085
2023-05-19T00:43:39.189Z,9.719067
2023-05-19T00:44:39.171Z,9.719076
2023-05-19T00:45:39.162Z,9.719106
2023-05-19T00:46:39.231Z,9.719153
2023-05-19T00:47:39.200Z,9.719165
2023-05-19T00:48:39.135Z,9.719123
2023-05-19T00:49:39.137Z,9.719111
2023-05-19T00:50:39.109Z,9.719121
2023-05-19T00:51:39.108Z,9.719119
2023-05-19T00:52:39.134Z,9.719161
2023-05-19T00:53:39.094Z,9.719148
2023-05-19T00:54:39.105Z,9.719198
2023-05-19T00:55:39.050Z,9.719204
2023-05-19T00:56:39.079Z,9.719163
2023-05-19T00:57:39.048Z,9.719165
2023-05-19T00:58:39.041Z,9.719182
2023-05-19T00:59:39.024Z,9.719181
2023-05-19T01:00:39.037Z,9.719221
2023-05-19T01:01:39.076Z,9.719271
2023-05-19T01:02:39.065Z,9.719219
2023-05-19T01:03:39.044Z,9.719184
2023-05-19T01:04:39.007Z,9.719262
2023-05-19T01:05:38.955Z,9.719213
2023-05-19T01:06:38.967Z,9.719219
2023-05-19T01:07:38.979Z,9.719260
2023-05-19T01:08:38.946Z,9.719311
2023-05-19T01:09:38.985Z,9.719279
2023-05-19T01:10:38.908Z,9.719268
2023-05-19T01:11:38.903Z,9.719264
2023-05-19T01:12:38.893Z,9.719268
2023-05-19T01:13:41.761Z,9.719267
2023-05-19T01:14:38.936Z,9.719253
2023-05-19T01:15:38.856Z,9.719258
2023-05-19T01:16:38.859Z,9.719290
2023-05-19T01:17:38.893Z,9.719243
2023-05-19T01:18:38.898Z,9.719228
2023-05-19T01:19:38.848Z,9.719251
2023-05-19T01:20:38.874Z,9.719247
2023-05-19T01:21:38.819Z,9.719222
2023-05-19T01:22:38.843Z,9.719309
2023-05-19T01:23:39.784Z,9.719212
2023-05-19T01:24:38.773Z,9.719160
2023-05-19T01:25:38.766Z,9.719280
2023-05-19T01:26:38.759Z,9.719458
2023-05-19T01:27:38.757Z,9.719270
2023-05-19T01:28:38.768Z,9.719210
2023-05-19T01:29:38.739Z,9.719251
2023-05-19T01:30:38.707Z,9.719292
2023-05-19T01:31:38.746Z,9.719296
2023-05-19T01:32:38.732Z,9.719399
2023-05-19T01:33:38.675Z,9.719267
2023-05-19T01:34:38.690Z,9.719238
2023-05-19T01:35:38.684Z,9.719176
2023-05-19T01:36:38.650Z,9.719259
2023-05-19T01:37:38.642Z,9.719432
2023-05-19T01:38:38.635Z,9.719405
2023-05-19T01:39:38.654Z,9.719236
2023-05-19T01:40:38.641Z,9.719252
2023-05-19T01:41:38.603Z,9.719227
2023-05-19T01:42:38.599Z,9.719220
2023-05-19T01:43:38.580Z,9.719161
2023-05-19T01:44:38.572Z,9.719275
2023-05-19T01:45:38.606Z,9.719243
2023-05-19T01:46:38.576Z,9.719187
2023-05-19T01:47:38.571Z,9.719172
2023-05-19T01:48:38.543Z,9.719206
2023-05-19T01:49:38.532Z,9.719241
2023-05-19T01:50:38.516Z,9.719299
2023-05-19T01:51:38.551Z,9.719291
2023-05-19T01:52:38.494Z,9.719250
2023-05-19T01:53:38.545Z,9.719260
2023-05-19T01:54:38.481Z,9.719241
2023-05-19T01:55:38.467Z,9.719272
2023-05-19T01:56:38.459Z,9.719429
2023-05-19T01:57:38.492Z,9.719415
2023-05-19T01:58:38.464Z,9.719265
2023-05-19T01:59:38.446Z,9.719203
2023-05-19T02:00:38.429Z,9.719249
2023-05-19T02:01:38.587Z,9.719290
2023-05-19T02:02:38.455Z,9.719245
2023-05-19T02:03:38.414Z,9.719204
2023-05-19T02:04:38.406Z,9.719138
2023-05-19T02:05:38.379Z,9.719135
2023-05-19T02:06:38.375Z,9.719133
2023-05-19T02:07:38.354Z,9.719308
2023-05-19T02:08:38.369Z,9.719329
2023-05-19T02:09:38.341Z,9.719174
2023-05-19T02:10:38.345Z,9.719274
2023-05-19T02:11:38.321Z,9.719300
2023-05-19T02:12:38.303Z,9.719351
2023-05-19T02:13:38.328Z,9.719269
2023-05-19T02:14:38.286Z,9.719338
2023-05-19T02:15:38.323Z,9.719285
2023-05-19T02:16:38.266Z,9.719307
2023-05-19T02:17:38.335Z,9.719279
2023-05-19T02:18:38.327Z,9.719296
2023-05-19T02:19:38.287Z,9.719309
2023-05-19T02:20:38.254Z,9.719316
2023-05-19T02:21:38.218Z,9.719318
2023-05-19T02:22:38.211Z,9.719296
2023-05-19T02:23:38.222Z,9.719355
2023-05-19T02:24:38.188Z,9.719323
2023-05-19T02:25:38.192Z,9.719306
2023-05-19T02:26:38.173Z,9.719308
2023-05-19T02:27:38.190Z,9.719245
2023-05-19T02:28:38.173Z,9.719241
2023-05-19T02:29:38.151Z,9.719222
2023-05-19T02:30:38.142Z,9.719226
2023-05-19T02:31:38.210Z,9.719230
2023-05-19T02:32:38.311Z,9.719253
2023-05-19T02:33:38.109Z,9.719299
2023-05-19T02:34:38.086Z,9.719262
2023-05-19T02:35:38.079Z,9.719277
2023-05-19T02:36:38.087Z,9.719310
2023-05-19T02:37:38.085Z,9.719196
2023-05-19T02:38:38.124Z,9.719248
2023-05-19T02:39:38.063Z,9.719276
2023-05-19T02:40:38.042Z,9.719386
2023-05-19T02:41:38.026Z,9.719692
2023-05-19T02:42:38.052Z,9.719517
2023-05-19T02:43:38.031Z,9.719387
2023-05-19T02:44:38.024Z,9.719039
2023-05-19T02:45:38.013Z,9.719230
2023-05-19T02:46:38.023Z,9.719207
2023-05-19T02:47:38.009Z,9.719182
2023-05-19T02:48:37.968Z,9.719184
2023-05-19T02:49:38.017Z,9.719321
2023-05-19T02:50:37.948Z,9.719395
2023-05-19T02:51:37.937Z,9.719357
2023-05-19T02:52:37.939Z,9.719329
2023-05-19T02:53:37.944Z,9.719254
2023-05-19T02:54:37.906Z,9.719421
2023-05-19T02:55:37.905Z,9.719367
2023-05-19T02:56:37.913Z,9.719224
2023-05-19T02:57:37.919Z,9.719135
2023-05-19T02:58:37.876Z,9.719011
2023-05-19T02:59:37.897Z,9.719309
2023-05-19T03:00:37.865Z,9.719249
2023-05-19T03:01:38.027Z,9.719507
2023-05-19T03:02:37.943Z,9.719037
2023-05-19T03:03:38.029Z,9.719163
2023-05-19T03:04:37.821Z,9.719149
2023-05-19T03:05:37.810Z,9.718935
2023-05-19T03:06:37.796Z,9.719104
2023-05-19T03:07:37.794Z,9.719102
2023-05-19T03:08:39.391Z,9.718937
2023-05-19T03:09:37.786Z,9.718938
2023-05-19T03:10:37.774Z,9.719131
2023-05-19T03:11:37.780Z,9.719161
2023-05-19T03:12:37.728Z,9.719215
2023-05-19T03:13:37.727Z,9.719170
2023-05-19T03:14:37.816Z,9.719162
2023-05-19T03:15:37.706Z,9.719220
2023-05-19T03:16:37.831Z,9.718796
2023-05-19T03:17:37.749Z,9.718971
2023-05-19T03:18:37.703Z,9.719151
2023-05-19T03:19:37.658Z,9.719172
2023-05-19T03:20:39.018Z,9.719269
2023-05-19T03:21:37.672Z,9.719183
2023-05-19T03:22:37.659Z,9.719158
2023-05-19T03:23:37.648Z,9.719205
2023-05-19T03:24:37.621Z,9.719172
2023-05-19T03:25:37.638Z,9.719133
2023-05-19T03:26:37.616Z,9.719185
2023-05-19T03:27:37.624Z,9.719234
2023-05-19T03:28:37.582Z,9.719233
2023-05-19T03:29:37.564Z,9.719257
2023-05-19T03:30:37.650Z,9.719262
2023-05-19T03:31:37.572Z,9.719208
2023-05-19T03:32:37.669Z,9.719160
2023-05-19T03:33:37.669Z,9.719136
2023-05-19T03:34:37.551Z,9.719137
2023-05-19T03:35:37.512Z,9.719153
2023-05-19T03:36:37.503Z,9.719169
2023-05-19T03:37:37.515Z,9.719209
2023-05-19T03:38:37.519Z,9.719201
2023-05-19T03:39:37.488Z,9.719246
2023-05-19T03:40:37.476Z,9.719199
2023-05-19T03:41:37.462Z,9.719166
2023-05-19T03:42:37.478Z,9.719139
2023-05-19T03:43:37.484Z,9.719169
2023-05-19T03:44:37.464Z,9.719152
2023-05-19T03:45:37.423Z,9.719207
2023-05-19T03:46:37.423Z,9.719230
2023-05-19T03:47:37.473Z,9.719116
2023-05-19T03:48:37.407Z,9.719148
2023-05-19T03:49:37.386Z,9.719232
2023-05-19T03:50:37.382Z,9.719114
2023-05-19T03:51:37.361Z,9.719112
2023-05-19T03:52:37.371Z,9.719312
2023-05-19T03:53:37.359Z,9.719443
2023-05-19T03:54:37.347Z,9.719445
2023-05-19T03:55:37.385Z,9.719501
2023-05-19T03:56:37.339Z,9.719524
2023-05-19T03:57:37.300Z,9.719443
2023-05-19T03:58:37.295Z,9.719424
2023-05-19T03:59:37.314Z,9.719301
2023-05-19T04:00:37.289Z,9.719454
2023-05-19T04:01:37.282Z,9.719158
2023-05-19T04:02:37.354Z,9.719320
2023-05-19T04:03:37.302Z,9.719131
2023-05-19T04:04:37.312Z,9.719271
2023-05-19T04:05:37.239Z,9.719378
2023-05-19T04:06:37.232Z,9.719492
2023-05-19T04:07:37.225Z,9.719331
2023-05-19T04:08:37.215Z,9.719387
2023-05-19T04:09:37.198Z,9.719287
2023-05-19T04:10:37.174Z,9.719253
2023-05-19T04:11:37.186Z,9.719302
2023-05-19T04:12:37.162Z,9.719154
2023-05-19T04:13:37.220Z,9.719247
2023-05-19T04:14:37.140Z,9.719247
2023-05-19T04:15:37.195Z,9.719247
2023-05-19T04:16:37.140Z,9.719635
2023-05-19T04:17:37.159Z,9.719144
2023-05-19T04:18:37.124Z,9.719433
2023-05-19T04:19:37.105Z,9.719132
2023-05-19T04:20:37.087Z,9.719016
2023-05-19T04:21:37.114Z,9.719028
2023-05-19T04:22:37.058Z,9.719010
2023-05-19T04:23:37.061Z,9.718986
2023-05-19T04:24:37.057Z,9.718947
2023-05-19T04:25:37.046Z,9.718632
2023-05-19T04:26:37.033Z,9.718280
2023-05-19T04:27:37.045Z,9.718490
2023-05-19T04:28:37.008Z,9.718757
2023-05-19T04:29:37.022Z,9.718150
2023-05-19T04:30:36.989Z,9.718152
2023-05-19T04:31:37.024Z,9.718455
2023-05-19T04:32:36.974Z,9.718656
2023-05-19T04:33:36.981Z,9.718557
2023-05-19T04:34:36.963Z,9.718359
2023-05-19T04:35:36.937Z,9.718385
2023-05-19T04:36:36.923Z,9.718768
2023-05-19T04:37:36.914Z,9.718999
2023-05-19T04:38:36.916Z,9.718873
2023-05-19T04:39:36.941Z,9.718527
2023-05-19T04:40:36.883Z,9.718736
2023-05-19T04:41:36.900Z,9.718432
2023-05-19T04:42:36.897Z,9.718461
2023-05-19T04:43:36.880Z,9.718637
2023-05-19T04:44:36.929Z,9.718374
2023-05-19T04:45:36.837Z,9.718379
2023-05-19T04:46:37.861Z,9.718379
2023-05-19T04:47:36.907Z,9.718379
2023-05-19T04:48:36.809Z,9.718379
2023-05-19T04:49:36.793Z,9.718379
2023-05-19T04:50:36.856Z,9.718379
2023-05-19T04:52:08.707Z,9.718379
2023-05-19T04:52:36.769Z,9.718379
2023-05-19T04:53:36.768Z,9.718379
2023-05-19T04:54:37.772Z,9.718379
2023-05-19T04:55:36.729Z,9.718379
2023-05-19T04:56:36.737Z,9.718379
2023-05-19T04:57:36.722Z,9.718379
2023-05-19T04:58:36.704Z,9.718379
2023-05-19T05:00:08.620Z,9.718379
2023-05-19T05:00:36.672Z,9.718379
2023-05-19T05:01:36.661Z,9.718379
2023-05-19T05:02:36.783Z,9.718379
2023-05-19T05:03:36.677Z,9.718379
2023-05-19T05:04:36.664Z,9.719056
2023-05-19T05:05:36.628Z,9.719096
2023-05-19T05:06:36.612Z,9.719036
2023-05-19T05:07:36.642Z,9.719105
2023-05-19T05:08:36.600Z,9.719106
2023-05-19T05:09:36.611Z,9.719049
2023-05-19T05:10:36.570Z,9.719033
2023-05-19T05:11:36.573Z,9.718940
2023-05-19T05:12:36.565Z,9.718987
2023-05-19T05:13:36.550Z,9.719040
2023-05-19T05:14:36.533Z,9.718959
2023-05-19T05:15:36.536Z,9.718951
2023-05-19T05:16:36.532Z,9.718842
2023-05-19T05:17:36.513Z,9.718880
2023-05-19T05:18:36.625Z,9.718939
2023-05-19T05:19:36.494Z,9.719147
2023-05-19T05:20:36.473Z,9.719301
2023-05-19T05:21:36.464Z,9.719160
2023-05-19T05:22:36.457Z,9.719174
2023-05-19T05:23:36.478Z,9.719129
2023-05-19T05:24:36.476Z,9.719110
2023-05-19T05:25:36.487Z,9.719115
2023-05-19T05:26:36.429Z,9.719113
2023-05-19T05:27:36.406Z,9.719174
2023-05-19T05:28:36.400Z,9.719086
2023-05-19T05:29:36.470Z,9.719171
2023-05-19T05:30:36.388Z,9.719209
2023-05-19T05:31:36.360Z,9.719183
2023-05-19T05:32:36.437Z,9.719209
2023-05-19T05:33:36.413Z,9.719201
2023-05-19T05:34:36.362Z,9.719166
2023-05-19T05:35:36.350Z,9.719110
2023-05-19T05:36:36.333Z,9.719337
2023-05-19T05:37:36.341Z,9.719420
2023-05-19T05:38:36.308Z,9.719385
2023-05-19T05:39:36.304Z,9.719302
2023-05-19T05:40:36.341Z,9.719317
2023-05-19T05:41:36.289Z,9.719343
2023-05-19T05:42:36.319Z,9.719446
2023-05-19T05:43:36.289Z,9.719332
2023-05-19T05:44:36.269Z,9.719101
2023-05-19T05:45:36.286Z,9.719150
2023-05-19T05:46:36.282Z,9.719337
2023-05-19T05:47:36.270Z,9.719370
2023-05-19T05:48:36.228Z,9.719190
2023-05-19T05:49:36.265Z,9.719146
2023-05-19T05:50:36.240Z,9.719303
2023-05-19T05:51:36.237Z,9.719387
2023-05-19T05:52:36.189Z,9.719262
2023-05-19T05:53:36.193Z,9.719205
2023-05-19T05:54:36.153Z,9.719027
2023-05-19T05:55:37.202Z,9.719246
2023-05-19T05:56:36.139Z,9.719009
2023-05-19T05:57:36.166Z,9.719257
2023-05-19T05:58:37.321Z,9.719286
2023-05-19T05:59:36.126Z,9.719251
2023-05-19T06:00:36.275Z,9.719241
2023-05-19T06:01:36.086Z,9.719187
2023-05-19T06:02:36.235Z,9.719274
2023-05-19T06:03:36.121Z,9.719268
2023-05-19T06:04:36.101Z,9.718988
2023-05-19T06:05:36.237Z,9.719263
2023-05-19T06:06:36.110Z,9.719318
2023-05-19T06:07:36.057Z,9.719328
2023-05-19T06:08:36.030Z,9.719251
2023-05-19T06:09:36.042Z,9.719295
2023-05-19T06:10:36.148Z,9.719016
2023-05-19T06:11:36.055Z,9.719295
2023-05-19T06:12:36.016Z,9.719291
2023-05-19T06:13:36.010Z,9.719259
2023-05-19T06:14:35.970Z,9.719217
2023-05-19T06:15:35.989Z,9.719228
2023-05-19T06:16:36.019Z,9.719028
2023-05-19T06:17:36.000Z,9.719008
2023-05-19T06:18:35.987Z,9.719199
2023-05-19T06:19:35.944Z,9.719603
2023-05-19T06:20:36.130Z,9.719616
2023-05-19T06:21:35.908Z,9.719258
2023-05-19T06:22:35.944Z,9.718811
2023-05-19T06:23:35.905Z,9.718915
2023-05-19T06:24:38.681Z,9.718915
2023-05-19T06:25:35.858Z,9.719232
2023-05-19T06:26:35.853Z,9.719250
2023-05-19T06:27:35.859Z,9.719208
2023-05-19T06:28:35.850Z,9.719258
2023-05-19T06:29:35.845Z,9.719386
2023-05-19T06:30:35.832Z,9.719105
2023-05-19T06:31:35.848Z,9.719131
2023-05-19T06:32:36.892Z,9.719096
2023-05-19T06:33:35.794Z,9.719140
2023-05-19T06:34:35.809Z,9.718983
2023-05-19T06:35:35.772Z,9.719252
2023-05-19T06:36:35.765Z,9.719950
2023-05-19T06:37:35.743Z,9.719309
2023-05-19T06:38:36.744Z,9.719039
2023-05-19T06:39:35.734Z,9.719104
2023-05-19T06:40:35.773Z,9.719155
2023-05-19T06:41:35.712Z,9.719317
2023-05-19T06:42:35.716Z,9.719123
2023-05-19T06:43:35.686Z,9.719089
2023-05-19T06:44:35.679Z,9.719010
2023-05-19T06:45:35.683Z,9.719249
2023-05-19T06:46:35.683Z,9.719328
2023-05-19T06:47:35.669Z,9.719133
2023-05-19T06:48:35.641Z,9.719046
2023-05-19T06:49:35.654Z,9.719163
2023-05-19T06:50:35.782Z,9.719269
2023-05-19T06:51:35.639Z,9.719125
2023-05-19T06:52:35.616Z,9.719071
2023-05-19T06:53:35.608Z,9.719122
2023-05-19T06:54:35.581Z,9.719090
2023-05-19T06:55:39.215Z,9.719078
2023-05-19T06:56:37.548Z,9.719082
2023-05-19T06:57:35.570Z,9.719151
2023-05-19T06:58:35.543Z,9.719099
2023-05-19T06:59:35.526Z,9.719180
2023-05-19T07:00:35.812Z,9.719271
2023-05-19T07:01:35.580Z,9.719204
2023-05-19T07:02:35.553Z,9.719069
2023-05-19T07:03:35.589Z,9.719171
2023-05-19T07:04:35.481Z,9.719202
2023-05-19T07:05:35.503Z,9.719233
2023-05-19T07:06:35.460Z,9.719168
2023-05-19T07:07:35.466Z,9.719176
2023-05-19T07:08:35.512Z,9.719189
2023-05-19T07:09:35.446Z,9.719130
2023-05-19T07:10:35.557Z,9.719198
2023-05-19T07:11:35.432Z,9.719153
2023-05-19T07:12:35.434Z,9.719065
2023-05-19T07:13:35.414Z,9.719178
2023-05-19T07:14:35.394Z,9.719185
2023-05-19T07:15:35.393Z,9.719076
2023-05-19T07:16:35.402Z,9.719195
2023-05-19T07:17:35.426Z,9.719107
2023-05-19T07:18:35.362Z,9.719206
2023-05-19T07:19:35.352Z,9.719090
2023-05-19T07:20:35.404Z,9.719129
2023-05-19T07:21:35.329Z,9.719048
2023-05-19T07:22:35.327Z,9.719082
2023-05-19T07:23:35.321Z,9.719024
2023-05-19T07:24:35.333Z,9.719056
2023-05-19T07:25:35.317Z,9.719154
2023-05-19T07:26:35.279Z,9.719162
2023-05-19T07:27:35.389Z,9.719099
2023-05-19T07:28:35.288Z,9.719093
2023-05-19T07:29:35.269Z,9.719072
2023-05-19T07:30:35.426Z,9.719110
2023-05-19T07:31:35.273Z,9.719153
2023-05-19T07:32:35.285Z,9.719235
2023-05-19T07:33:35.246Z,9.719207
2023-05-19T07:34:35.233Z,9.719148
2023-05-19T07:35:35.197Z,9.719108
2023-05-19T07:36:35.211Z,9.719141
2023-05-19T07:37:35.207Z,9.719193
2023-05-19T07:38:35.235Z,9.719212
2023-05-19T07:39:35.176Z,9.719208
2023-05-19T07:40:35.282Z,9.719339
2023-05-19T07:41:36.444Z,9.719186
2023-05-19T07:42:35.137Z,9.719048
2023-05-19T07:43:35.129Z,9.719134
2023-05-19T07:44:35.142Z,9.719142
2023-05-19T07:45:35.176Z,9.719280
2023-05-19T07:46:35.194Z,9.719430
2023-05-19T07:47:35.119Z,9.719106
2023-05-19T07:48:35.100Z,9.719025
2023-05-19T07:49:35.116Z,9.719066
2023-05-19T07:50:35.076Z,9.719215
2023-05-19T07:51:35.080Z,9.719103
2023-05-19T07:52:35.042Z,9.719117
2023-05-19T07:53:35.065Z,9.719162
2023-05-19T07:54:35.016Z,9.719097
2023-05-19T07:55:35.030Z,9.719069
2023-05-19T07:56:35.068Z,9.719169
2023-05-19T07:57:34.992Z,9.719141
2023-05-19T07:58:34.983Z,9.718950
2023-05-19T07:59:35.021Z,9.718898
2023-05-19T08:00:35.227Z,9.718878
2023-05-19T08:01:34.988Z,9.718786
2023-05-19T08:02:35.043Z,9.718843
2023-05-19T08:03:35.191Z,9.718759
2023-05-19T08:04:34.974Z,9.718847
2023-05-19T08:05:34.914Z,9.718690
2023-05-19T08:06:34.928Z,9.718613
2023-05-19T08:07:34.894Z,9.719027
2023-05-19T08:08:34.932Z,9.719034
2023-05-19T08:09:34.861Z,9.718888
2023-05-19T08:10:35.095Z,9.718852
2023-05-19T08:11:34.882Z,9.718885
2023-05-19T08:12:34.865Z,9.718895
2023-05-19T08:13:34.912Z,9.719055
2023-05-19T08:14:34.870Z,9.719082
2023-05-19T08:15:35.609Z,9.719113
2023-05-19T08:16:34.802Z,9.718950
2023-05-19T08:17:34.854Z,9.718999
2023-05-19T08:18:34.802Z,9.718946
2023-05-19T08:19:34.784Z,9.718959
2023-05-19T08:20:35.065Z,9.719062
2023-05-19T08:21:34.781Z,9.719068
2023-05-19T08:22:34.756Z,9.719113
2023-05-19T08:23:34.746Z,9.719085
2023-05-19T08:24:34.769Z,9.719097
2023-05-19T08:25:35.718Z,9.719096
2023-05-19T08:26:37.066Z,9.719092
2023-05-19T08:27:34.711Z,9.719049
2023-05-19T08:28:34.717Z,9.719073
2023-05-19T08:29:34.688Z,9.719082
2023-05-19T08:30:34.836Z,9.719023
2023-05-19T08:31:34.837Z,9.719067
2023-05-19T08:32:34.680Z,9.719110
2023-05-19T08:33:34.690Z,9.719090
2023-05-19T08:34:34.659Z,9.719094
2023-05-19T08:35:34.625Z,9.719111
2023-05-19T08:36:34.616Z,9.719111
2023-05-19T08:37:34.612Z,9.719108
2023-05-19T08:38:34.601Z,9.719125
2023-05-19T08:39:34.609Z,9.719112
2023-05-19T08:40:34.872Z,9.719086
2023-05-19T08:41:35.563Z,9.719118
2023-05-19T08:42:34.576Z,9.719091
2023-05-19T08:43:34.556Z,9.719106
2023-05-19T08:44:34.547Z,9.719077
2023-05-19T08:45:34.811Z,9.719101
2023-05-19T08:46:34.609Z,9.719209
2023-05-19T08:47:34.564Z,9.719230
2023-05-19T08:48:34.505Z,9.719183
2023-05-19T08:49:34.491Z,9.719231
2023-05-19T08:50:34.906Z,9.719213
2023-05-19T08:51:34.475Z,9.719098
2023-05-19T08:52:34.474Z,9.719155
2023-05-19T08:53:34.860Z,9.719172
2023-05-19T08:54:34.458Z,9.719057
2023-05-19T08:55:34.746Z,9.719082
2023-05-19T08:56:34.451Z,9.719176
2023-05-19T08:57:34.437Z,9.719050
2023-05-19T08:58:34.416Z,9.719034
2023-05-19T08:59:34.450Z,9.719120
2023-05-19T09:00:34.727Z,9.719156
2023-05-19T09:01:34.427Z,9.719208
2023-05-19T09:02:34.422Z,9.719277
2023-05-19T09:03:34.484Z,9.719285
2023-05-19T09:04:34.444Z,9.719311
2023-05-19T09:05:34.750Z,9.719222
2023-05-19T09:06:34.356Z,9.719210
2023-05-19T09:07:34.338Z,9.719136
2023-05-19T09:08:34.310Z,9.719222
2023-05-19T09:09:34.323Z,9.719276
2023-05-19T09:10:34.292Z,9.719229
2023-05-19T09:11:34.306Z,9.719204
2023-05-19T09:12:34.261Z,9.719164
2023-05-19T09:13:34.265Z,9.719233
2023-05-19T09:14:34.259Z,9.719230
2023-05-19T09:15:34.479Z,9.719128
2023-05-19T09:16:34.355Z,9.719223
2023-05-19T09:17:34.258Z,9.719239
2023-05-19T09:18:34.208Z,9.719201
2023-05-19T09:19:34.264Z,9.719238
2023-05-19T09:20:34.230Z,9.719307
2023-05-19T09:21:34.185Z,9.719254
2023-05-19T09:22:34.170Z,9.719294
2023-05-19T09:23:34.184Z,9.719416
2023-05-19T09:24:34.150Z,9.719481
2023-05-19T09:25:34.370Z,9.719419
2023-05-19T09:26:34.195Z,9.719395
2023-05-19T09:27:34.113Z,9.719304
2023-05-19T09:28:34.122Z,9.719271
2023-05-19T09:29:34.091Z,9.719357
2023-05-19T09:30:34.133Z,9.719509
2023-05-19T09:31:34.139Z,9.719452
2023-05-19T09:32:34.102Z,9.719360
2023-05-19T09:33:34.081Z,9.719137
2023-05-19T09:34:34.045Z,9.719336
2023-05-19T09:35:34.310Z,9.719393
2023-05-19T09:36:34.030Z,9.719265
2023-05-19T09:37:34.037Z,9.719259
2023-05-19T09:38:34.006Z,9.719224
2023-05-19T09:39:34.060Z,9.719219
2023-05-19T09:40:33.982Z,9.719194
2023-05-19T09:41:33.968Z,9.719192
2023-05-19T09:42:33.961Z,9.719362
2023-05-19T09:43:33.953Z,9.719348
2023-05-19T09:44:33.976Z,9.719421
2023-05-19T09:45:34.038Z,9.719377
2023-05-19T09:46:34.078Z,9.719320
2023-05-19T09:47:33.941Z,9.719300
2023-05-19T09:48:33.899Z,9.719328
2023-05-19T09:49:33.913Z,9.719377
2023-05-19T09:50:33.906Z,9.719316
2023-05-19T09:51:33.901Z,9.719213
2023-05-19T09:52:33.870Z,9.719296
2023-05-19T09:53:33.859Z,9.719518
2023-05-19T09:54:33.864Z,9.719591
2023-05-19T09:55:34.034Z,9.719492
2023-05-19T09:56:33.828Z,9.719413
2023-05-19T09:57:33.863Z,9.719383
2023-05-19T09:58:33.802Z,9.719381
2023-05-19T09:59:34.235Z,9.719456
2023-05-19T10:00:34.070Z,9.719580
2023-05-19T10:01:33.874Z,9.719713
2023-05-19T10:02:33.805Z,9.719544
2023-05-19T10:03:33.813Z,9.719606
2023-05-19T10:04:33.827Z,9.719626
2023-05-19T10:05:35.232Z,9.719573
2023-05-19T10:06:33.767Z,9.719421
2023-05-19T10:07:33.752Z,9.719391
2023-05-19T10:08:33.733Z,9.719248
2023-05-19T10:09:33.717Z,9.719309
2023-05-19T10:10:33.686Z,9.719502
2023-05-19T10:11:33.691Z,9.719439
2023-05-19T10:12:33.669Z,9.719312
2023-05-19T10:13:33.707Z,9.719362
2023-05-19T10:14:33.654Z,9.719353
2023-05-19T10:15:40.801Z,9.719369
2023-05-19T10:16:33.682Z,9.719350
2023-05-19T10:17:33.714Z,9.719301
2023-05-19T10:18:33.638Z,9.719624
2023-05-19T10:19:33.803Z,9.719543
2023-05-19T10:20:33.844Z,9.719769
2023-05-19T10:21:33.608Z,9.719661
2023-05-19T10:22:33.593Z,9.719534
2023-05-19T10:23:33.596Z,9.719528
2023-05-19T10:24:33.556Z,9.719016
2023-05-19T10:25:33.901Z,9.718913
2023-05-19T10:26:33.562Z,9.718699
2023-05-19T10:27:33.524Z,9.718788
2023-05-19T10:28:33.537Z,9.718734
2023-05-19T10:29:33.518Z,9.718842
2023-05-19T10:30:33.502Z,9.718684
2023-05-19T10:31:33.522Z,9.718585
2023-05-19T10:32:33.546Z,9.718677
2023-05-19T10:33:33.499Z,9.718666
2023-05-19T10:34:33.470Z,9.718645
2023-05-19T10:35:33.828Z,9.718779
2023-05-19T10:36:33.448Z,9.718869
2023-05-19T10:37:33.450Z,9.719212
2023-05-19T10:38:33.431Z,9.718939
2023-05-19T10:39:33.434Z,9.718740
2023-05-19T10:40:33.403Z,9.718720
2023-05-19T10:41:33.407Z,9.718932
2023-05-19T10:42:33.380Z,9.718713
2023-05-19T10:43:33.402Z,9.718845
2023-05-19T10:44:33.370Z,9.719162
2023-05-19T10:45:33.523Z,9.719177
2023-05-19T10:46:33.445Z,9.719245
2023-05-19T10:47:33.405Z,9.719170
2023-05-19T10:48:33.362Z,9.719276
2023-05-19T10:49:33.324Z,9.719166
2023-05-19T10:50:33.312Z,9.719120
2023-05-19T10:51:33.318Z,9.719118
2023-05-19T10:53:05.217Z,9.719114
2023-05-19T10:53:33.292Z,9.719135
2023-05-19T10:54:33.339Z,9.719006
2023-05-19T10:55:33.529Z,9.719149
2023-05-19T10:56:33.311Z,9.719078
2023-05-19T10:57:33.272Z,9.719061
2023-05-19T10:58:33.259Z,9.719156
2023-05-19T10:59:33.255Z,9.719150
2023-05-19T11:00:33.275Z,9.719148
2023-05-19T11:01:33.359Z,9.719212
2023-05-19T11:02:33.259Z,9.719202
2023-05-19T11:03:33.217Z,9.719202
2023-05-19T11:04:33.225Z,9.719244
2023-05-19T11:05:33.296Z,9.719226
2023-05-19T11:06:33.187Z,9.719144
2023-05-19T11:07:33.184Z,9.719135
2023-05-19T11:08:33.192Z,9.719133
2023-05-19T11:09:40.005Z,9.719226
2023-05-19T11:10:35.130Z,9.719248
2023-05-19T11:11:33.326Z,9.719205
2023-05-19T11:12:33.125Z,9.719209
2023-05-19T11:13:33.096Z,9.719202
2023-05-19T11:14:33.096Z,9.719199
2023-05-19T11:15:33.357Z,9.719241
2023-05-19T11:16:33.108Z,9.719263
2023-05-19T11:17:34.422Z,9.719256
2023-05-19T11:18:34.044Z,9.719281
2023-05-19T11:19:33.132Z,9.719248
2023-05-19T11:20:33.029Z,9.719213
2023-05-19T11:21:33.055Z,9.718925
2023-05-19T11:22:33.015Z,9.718757
2023-05-19T11:23:33.481Z,9.718843
2023-05-19T11:24:33.001Z,9.718586
2023-05-19T11:25:33.182Z,9.718596
2023-05-19T11:26:33.040Z,9.718472
2023-05-19T11:27:32.982Z,9.718676
2023-05-19T11:28:32.987Z,9.718852
2023-05-19T11:29:34.732Z,9.718661
2023-05-19T11:30:32.943Z,9.718738
2023-05-19T11:31:32.989Z,9.718752
2023-05-19T11:32:32.925Z,9.718410
2023-05-19T11:33:32.948Z,9.718607
2023-05-19T11:34:32.909Z,9.718787
2023-05-19T11:35:35.420Z,9.718946
2023-05-19T11:36:33.899Z,9.719013
2023-05-19T11:37:32.893Z,9.719123
2023-05-19T11:38:32.885Z,9.719035
2023-05-19T11:39:32.842Z,9.718854
2023-05-19T11:40:32.861Z,9.718913
2023-05-19T11:41:32.847Z,9.719106
2023-05-19T11:42:32.849Z,9.719110
2023-05-19T11:43:32.835Z,9.719137
2023-05-19T11:44:32.807Z,9.719000